sensor_id;sensor_type;location;lat;lon;timestamp;P1;durP1;ratioP1;P2;durP2;ratioP2
53939;SDS011;39850;43.324;21.916;2022-09-14T00:02:38;9.0;;;8.0;;
53939;SDS011;39850;43.324;21.916;2022-09-14T00:07:16;10.0;;;8.0;;
53939;SDS011;39850;43.324;21.916;2022-09-14T00:11:53;10.0;;;8.0;;
53939;SDS011;39850;43.324;21.916;2022-09-14T00:16:42;9.0;;;8.0;;
53939;SDS011;39850;43.324;21.916;2022-09-14T00:21:23;9.0;;;8.0;;
53939;SDS011;39850;43.324;21.916;2022-09-14T00:26:15;10.0;;;8.0;;
53939;SDS011;39850;43.324;21.916;2022-09-14T00:30:53;10.0;;;8.0;;
53939;SDS011;39850;43.324;21.916;2022-09-14T00:35:30;9.0;;;8.0;;
53939;SDS011;39850;43.324;21.916;2022-09-14T00:40:11;9.0;;;8.0;;
53939;SDS011;39850;43.324;21.916;2022-09-14T00:45:17;9.0;;;8.0;;
53939;SDS011;39850;43.324;21.916;2022-09-14T01:19:29;10.0;;;8.0;;
53939;SDS011;39850;43.324;21.916;2022-09-14T01:24:45;10.0;;;8.0;;
53939;SDS011;39850;43.324;21.916;2022-09-14T01:29:49;10.0;;;8.0;;
53939;SDS011;39850;43.324;21.916;2022-09-14T01:35:04;10.0;;;8.0;;
53939;SDS011;39850;43.324;21.916;2022-09-14T01:40:16;9.0;;;8.0;;
53939;SDS011;39850;43.324;21.916;2022-09-14T01:45:19;9.0;;;8.0;;
53939;SDS011;39850;43.324;21.916;2022-09-14T01:50:21;9.0;;;8.0;;
53939;SDS011;39850;43.324;21.916;2022-09-14T01:55:25;9.0;;;8.0;;
53939;SDS011;39850;43.324;21.916;2022-09-14T02:00:21;9.0;;;8.0;;
53939;SDS011;39850;43.324;21.916;2022-09-14T02:05:17;9.0;;;8.0;;
53939;SDS011;39850;43.324;21.916;2022-09-14T02:40:18;9.0;;;8.0;;
53939;SDS011;39850;43.324;21.916;2022-09-14T02:45:55;9.0;;;8.0;;
53939;SDS011;39850;43.324;21.916;2022-09-14T02:51:23;9.0;;;8.0;;
53939;SDS011;39850;43.324;21.916;2022-09-14T02:56:16;9.0;;;8.0;;
53939;SDS011;39850;43.324;21.916;2022-09-14T03:00:55;9.0;;;8.0;;
53939;SDS011;39850;43.324;21.916;2022-09-14T03:05:36;9.0;;;8.0;;
53939;SDS011;39850;43.324;21.916;2022-09-14T03:10:14;9.0;;;8.0;;
53939;SDS011;39850;43.324;21.916;2022-09-14T03:14:51;9.0;;;8.0;;
53939;SDS011;39850;43.324;21.916;2022-09-14T03:19:28;9.0;;;8.0;;
53939;SDS011;39850;43.324;21.916;2022-09-14T03:24:06;9.0;;;8.0;;
53939;SDS011;39850;43.324;21.916;2022-09-14T03:56:34;9.0;;;9.0;;
53939;SDS011;39850;43.324;21.916;2022-09-14T04:01:20;9.0;;;9.0;;
53939;SDS011;39850;43.324;21.916;2022-09-14T04:05:59;9.0;;;9.0;;
53939;SDS011;39850;43.324;21.916;2022-09-14T04:10:39;9.0;;;8.0;;
53939;SDS011;39850;43.324;21.916;2022-09-14T04:15:16;9.0;;;8.0;;
53939;SDS011;39850;43.324;21.916;2022-09-14T04:19:54;9.0;;;8.0;;
53939;SDS011;39850;43.324;21.916;2022-09-14T04:24:31;9.0;;;8.0;;
53939;SDS011;39850;43.324;21.916;2022-09-14T04:29:12;10.0;;;8.0;;
53939;SDS011;39850;43.324;21.916;2022-09-14T04:33:53;10.0;;;8.0;;
53939;SDS011;39850;43.324;21.916;2022-09-14T04:38:37;10.0;;;8.0;;
53939;SDS011;39850;43.324;21.916;2022-09-14T04:43:16;10.0;;;8.0;;
53939;SDS011;39850;43.324;21.916;2022-09-14T05:21:17;10.0;;;9.0;;
53939;SDS011;39850;43.324;21.916;2022-09-14T05:25:58;10.0;;;9.0;;
53939;SDS011;39850;43.324;21.916;2022-09-14T05:30:39;10.0;;;10.0;;
53939;SDS011;39850;43.324;21.916;2022-09-14T05:35:17;10.0;;;10.0;;
53939;SDS011;39850;43.324;21.916;2022-09-14T05:39:53;11.0;;;9.0;;
53939;SDS011;39850;43.324;21.916;2022-09-14T05:44:30;11.0;;;9.0;;
53939;SDS011;39850;43.324;21.916;2022-09-14T05:49:08;11.0;;;10.0;;
53939;SDS011;39850;43.324;21.916;2022-09-14T05:53:49;11.0;;;10.0;;
53939;SDS011;39850;43.324;21.916;2022-09-14T05:58:29;11.0;;;9.0;;
53939;SDS011;39850;43.324;21.916;2022-09-14T06:03:07;11.0;;;9.0;;
53939;SDS011;39850;43.324;21.916;2022-09-14T06:40:10;10.0;;;8.0;;
53939;SDS011;39850;43.324;21.916;2022-09-14T06:44:47;10.0;;;8.0;;
53939;SDS011;39850;43.324;21.916;2022-09-14T06:49:24;10.0;;;8.0;;
53939;SDS011;39850;43.324;21.916;2022-09-14T06:54:05;10.0;;;8.0;;
53939;SDS011;39850;43.324;21.916;2022-09-14T06:58:46;10.0;;;8.0;;
53939;SDS011;39850;43.324;21.916;2022-09-14T07:03:23;10.0;;;8.0;;
53939;SDS011;39850;43.324;21.916;2022-09-14T07:08:01;10.0;;;8.0;;
53939;SDS011;39850;43.324;21.916;2022-09-14T07:12:38;10.0;;;8.0;;
53939;SDS011;39850;43.324;21.916;2022-09-14T07:17:14;10.0;;;8.0;;
53939;SDS011;39850;43.324;21.916;2022-09-14T07:21:51;10.0;;;8.0;;
53939;SDS011;39850;43.324;21.916;2022-09-14T07:26:34;10.0;;;8.0;;
53939;SDS011;39850;43.324;21.916;2022-09-14T07:59:30;10.0;;;8.0;;
53939;SDS011;39850;43.324;21.916;2022-09-14T08:04:08;10.0;;;8.0;;
53939;SDS011;39850;43.324;21.916;2022-09-14T08:08:55;10.0;;;8.0;;
53939;SDS011;39850;43.324;21.916;2022-09-14T08:13:38;10.0;;;8.0;;
53939;SDS011;39850;43.324;21.916;2022-09-14T08:18:20;10.0;;;8.0;;
53939;SDS011;39850;43.324;21.916;2022-09-14T08:22:59;10.0;;;8.0;;
53939;SDS011;39850;43.324;21.916;2022-09-14T08:27:38;10.0;;;8.0;;
53939;SDS011;39850;43.324;21.916;2022-09-14T08:32:15;10.0;;;8.0;;
53939;SDS011;39850;43.324;21.916;2022-09-14T08:36:52;10.0;;;8.0;;
53939;SDS011;39850;43.324;21.916;2022-09-14T08:41:49;10.0;;;7.0;;
53939;SDS011;39850;43.324;21.916;2022-09-14T08:46:44;10.0;;;7.0;;
53939;SDS011;39850;43.324;21.916;2022-09-14T09:20:59;26.0;;;28.0;;
53939;SDS011;39850;43.324;21.916;2022-09-14T09:26:03;26.0;;;28.0;;
53939;SDS011;39850;43.324;21.916;2022-09-14T09:30:54;20.0;;;20.0;;
53939;SDS011;39850;43.324;21.916;2022-09-14T09:35:38;20.0;;;20.0;;
53939;SDS011;39850;43.324;21.916;2022-09-14T09:40:34;16.0;;;15.0;;
53939;SDS011;39850;43.324;21.916;2022-09-14T09:45:20;16.0;;;15.0;;
53939;SDS011;39850;43.324;21.916;2022-09-14T09:50:20;15.0;;;14.0;;
53939;SDS011;39850;43.324;21.916;2022-09-14T09:55:07;15.0;;;14.0;;
53939;SDS011;39850;43.324;21.916;2022-09-14T10:00:24;16.0;;;15.0;;
53939;SDS011;39850;43.324;21.916;2022-09-14T10:05:25;16.0;;;15.0;;
53939;SDS011;39850;43.324;21.916;2022-09-14T10:40:18;10.0;;;8.0;;
53939;SDS011;39850;43.324;21.916;2022-09-14T10:45:36;10.0;;;8.0;;
53939;SDS011;39850;43.324;21.916;2022-09-14T10:51:32;10.0;;;8.0;;
53939;SDS011;39850;43.324;21.916;2022-09-14T10:57:14;10.0;;;8.0;;
53939;SDS011;39850;43.324;21.916;2022-09-14T11:03:46;10.0;;;9.0;;
53939;SDS011;39850;43.324;21.916;2022-09-14T11:09:14;11.0;;;9.0;;
53939;SDS011;39850;43.324;21.916;2022-09-14T11:14:42;11.0;;;9.0;;
53939;SDS011;39850;43.324;21.916;2022-09-14T11:19:58;12.0;;;9.0;;
53939;SDS011;39850;43.324;21.916;2022-09-14T11:25:01;12.0;;;9.0;;
53939;SDS011;39850;43.324;21.916;2022-09-14T11:59:06;8.0;;;6.0;;
53939;SDS011;39850;43.324;21.916;2022-09-14T12:04:19;8.0;;;6.0;;
53939;SDS011;39850;43.324;21.916;2022-09-14T12:09:43;8.0;;;6.0;;
53939;SDS011;39850;43.324;21.916;2022-09-14T12:14:35;8.0;;;6.0;;
53939;SDS011;39850;43.324;21.916;2022-09-14T12:19:17;8.0;;;6.0;;
53939;SDS011;39850;43.324;21.916;2022-09-14T12:23:55;8.0;;;6.0;;
53939;SDS011;39850;43.324;21.916;2022-09-14T12:28:51;8.0;;;6.0;;
53939;SDS011;39850;43.324;21.916;2022-09-14T12:34:17;8.0;;;6.0;;
53939;SDS011;39850;43.324;21.916;2022-09-14T12:39:25;8.0;;;6.0;;
53939;SDS011;39850;43.324;21.916;2022-09-14T12:44:37;8.0;;;6.0;;
53939;SDS011;39850;43.324;21.916;2022-09-14T13:19:28;9.0;;;6.0;;
53939;SDS011;39850;43.324;21.916;2022-09-14T13:24:46;9.0;;;6.0;;
53939;SDS011;39850;43.324;21.916;2022-09-14T13:29:28;9.0;;;6.0;;
53939;SDS011;39850;43.324;21.916;2022-09-14T13:34:20;9.0;;;6.0;;
53939;SDS011;39850;43.324;21.916;2022-09-14T13:39:26;9.0;;;6.0;;
53939;SDS011;39850;43.324;21.916;2022-09-14T13:44:13;9.0;;;6.0;;
53939;SDS011;39850;43.324;21.916;2022-09-14T13:48:55;9.0;;;6.0;;
53939;SDS011;39850;43.324;21.916;2022-09-14T13:53:48;9.0;;;6.0;;
53939;SDS011;39850;43.324;21.916;2022-09-14T13:58:26;9.0;;;6.0;;
53939;SDS011;39850;43.324;21.916;2022-09-14T14:03:04;9.0;;;6.0;;
53939;SDS011;39850;43.324;21.916;2022-09-14T14:07:45;9.0;;;6.0;;
53939;SDS011;39850;43.324;21.916;2022-09-14T14:40:55;9.0;;;7.0;;
53939;SDS011;39850;43.324;21.916;2022-09-14T14:45:33;9.0;;;7.0;;
53939;SDS011;39850;43.324;21.916;2022-09-14T14:50:17;8.0;;;6.0;;
53939;SDS011;39850;43.324;21.916;2022-09-14T14:54:57;8.0;;;6.0;;
53939;SDS011;39850;43.324;21.916;2022-09-14T14:59:35;9.0;;;7.0;;
53939;SDS011;39850;43.324;21.916;2022-09-14T15:04:13;9.0;;;7.0;;
53939;SDS011;39850;43.324;21.916;2022-09-14T15:08:55;8.0;;;6.0;;
53939;SDS011;39850;43.324;21.916;2022-09-14T15:13:32;8.0;;;6.0;;
53939;SDS011;39850;43.324;21.916;2022-09-14T15:18:09;8.0;;;6.0;;
53939;SDS011;39850;43.324;21.916;2022-09-14T15:22:48;9.0;;;7.0;;
53939;SDS011;39850;43.324;21.916;2022-09-14T15:27:26;9.0;;;7.0;;
53939;SDS011;39850;43.324;21.916;2022-09-14T16:00:13;10.0;;;7.0;;
53939;SDS011;39850;43.324;21.916;2022-09-14T16:04:51;10.0;;;7.0;;
53939;SDS011;39850;43.324;21.916;2022-09-14T16:09:28;10.0;;;6.0;;
53939;SDS011;39850;43.324;21.916;2022-09-14T16:14:11;10.0;;;6.0;;
53939;SDS011;39850;43.324;21.916;2022-09-14T16:18:48;9.0;;;6.0;;
53939;SDS011;39850;43.324;21.916;2022-09-14T16:23:26;9.0;;;6.0;;
53939;SDS011;39850;43.324;21.916;2022-09-14T16:28:03;9.0;;;6.0;;
53939;SDS011;39850;43.324;21.916;2022-09-14T16:32:40;9.0;;;6.0;;
53939;SDS011;39850;43.324;21.916;2022-09-14T16:37:16;9.0;;;6.0;;
53939;SDS011;39850;43.324;21.916;2022-09-14T16:41:53;9.0;;;6.0;;
53939;SDS011;39850;43.324;21.916;2022-09-14T16:46:33;9.0;;;6.0;;
53939;SDS011;39850;43.324;21.916;2022-09-14T17:19:12;11.0;;;9.0;;
53939;SDS011;39850;43.324;21.916;2022-09-14T17:23:50;11.0;;;9.0;;
53939;SDS011;39850;43.324;21.916;2022-09-14T17:28:28;11.0;;;9.0;;
53939;SDS011;39850;43.324;21.916;2022-09-14T17:33:06;12.0;;;10.0;;
53939;SDS011;39850;43.324;21.916;2022-09-14T17:37:43;12.0;;;10.0;;
53939;SDS011;39850;43.324;21.916;2022-09-14T17:42:20;14.0;;;12.0;;
53939;SDS011;39850;43.324;21.916;2022-09-14T17:46:57;14.0;;;12.0;;
53939;SDS011;39850;43.324;21.916;2022-09-14T17:51:34;16.0;;;13.0;;
53939;SDS011;39850;43.324;21.916;2022-09-14T17:56:18;16.0;;;13.0;;
53939;SDS011;39850;43.324;21.916;2022-09-14T18:01:09;17.0;;;14.0;;
53939;SDS011;39850;43.324;21.916;2022-09-14T18:05:54;17.0;;;14.0;;
53939;SDS011;39850;43.324;21.916;2022-09-14T18:43:16;29.0;;;29.0;;
53939;SDS011;39850;43.324;21.916;2022-09-14T18:47:53;29.0;;;29.0;;
53939;SDS011;39850;43.324;21.916;2022-09-14T18:52:31;26.0;;;24.0;;
53939;SDS011;39850;43.324;21.916;2022-09-14T18:57:09;26.0;;;24.0;;
53939;SDS011;39850;43.324;21.916;2022-09-14T19:01:46;22.0;;;20.0;;
53939;SDS011;39850;43.324;21.916;2022-09-14T19:06:24;22.0;;;20.0;;
53939;SDS011;39850;43.324;21.916;2022-09-14T19:11:12;20.0;;;17.0;;
53939;SDS011;39850;43.324;21.916;2022-09-14T19:15:51;20.0;;;17.0;;
53939;SDS011;39850;43.324;21.916;2022-09-14T19:20:27;19.0;;;14.0;;
53939;SDS011;39850;43.324;21.916;2022-09-14T19:25:07;19.0;;;14.0;;
53939;SDS011;39850;43.324;21.916;2022-09-14T20:02:10;43.0;;;40.0;;
53939;SDS011;39850;43.324;21.916;2022-09-14T20:06:48;43.0;;;40.0;;
53939;SDS011;39850;43.324;21.916;2022-09-14T20:11:32;45.0;;;42.0;;
53939;SDS011;39850;43.324;21.916;2022-09-14T20:16:20;45.0;;;42.0;;
53939;SDS011;39850;43.324;21.916;2022-09-14T20:21:08;43.0;;;40.0;;
53939;SDS011;39850;43.324;21.916;2022-09-14T20:25:48;43.0;;;40.0;;
53939;SDS011;39850;43.324;21.916;2022-09-14T20:30:25;42.0;;;39.0;;
53939;SDS011;39850;43.324;21.916;2022-09-14T20:35:04;42.0;;;39.0;;
53939;SDS011;39850;43.324;21.916;2022-09-14T20:39:41;37.0;;;34.0;;
53939;SDS011;39850;43.324;21.916;2022-09-14T20:44:19;37.0;;;34.0;;
53939;SDS011;39850;43.324;21.916;2022-09-14T20:48:57;37.0;;;34.0;;
53939;SDS011;39850;43.324;21.916;2022-09-14T21:21:34;21.0;;;16.0;;
53939;SDS011;39850;43.324;21.916;2022-09-14T21:26:14;21.0;;;16.0;;
53939;SDS011;39850;43.324;21.916;2022-09-14T21:31:08;18.0;;;14.0;;
53939;SDS011;39850;43.324;21.916;2022-09-14T21:35:47;18.0;;;14.0;;
53939;SDS011;39850;43.324;21.916;2022-09-14T21:40:24;21.0;;;16.0;;
53939;SDS011;39850;43.324;21.916;2022-09-14T21:45:01;21.0;;;16.0;;
53939;SDS011;39850;43.324;21.916;2022-09-14T21:49:38;26.0;;;22.0;;
53939;SDS011;39850;43.324;21.916;2022-09-14T21:54:16;26.0;;;22.0;;
53939;SDS011;39850;43.324;21.916;2022-09-14T21:59:04;26.0;;;22.0;;
53939;SDS011;39850;43.324;21.916;2022-09-14T22:03:42;35.0;;;30.0;;
53939;SDS011;39850;43.324;21.916;2022-09-14T22:08:19;35.0;;;30.0;;
53939;SDS011;39850;43.324;21.916;2022-09-14T22:40:43;13.0;;;11.0;;
53939;SDS011;39850;43.324;21.916;2022-09-14T22:45:20;13.0;;;11.0;;
53939;SDS011;39850;43.324;21.916;2022-09-14T22:49:56;12.0;;;10.0;;
53939;SDS011;39850;43.324;21.916;2022-09-14T22:54:33;12.0;;;10.0;;
53939;SDS011;39850;43.324;21.916;2022-09-14T22:59:10;12.0;;;10.0;;
53939;SDS011;39850;43.324;21.916;2022-09-14T23:03:57;11.0;;;10.0;;
53939;SDS011;39850;43.324;21.916;2022-09-14T23:08:40;11.0;;;10.0;;
53939;SDS011;39850;43.324;21.916;2022-09-14T23:13:17;11.0;;;10.0;;
53939;SDS011;39850;43.324;21.916;2022-09-14T23:17:55;11.0;;;10.0;;
53939;SDS011;39850;43.324;21.916;2022-09-14T23:22:32;11.0;;;9.0;;
53939;SDS011;39850;43.324;21.916;2022-09-14T23:27:09;11.0;;;9.0;;
